Time;durP1;ratioP1;P1;durP2;ratioP2;P2;SDS_P1;SDS_P2;PMS_P1;PMS_P2;Temp;Humidity;BMP_temperature;BMP_pressure;BME280_temperature;BME280_humidity;BME280_pressure;Samples;Min_cycle;Max_cycle;Signal;HPM_P1;HPM_P2
2022/07/30 00:00:32;;;;;;;2.77;2.57;;;;;;;25.02;65.87;97440.84;5108437;28;20302;-21
2022/07/30 00:02:58;;;;;;;2.53;2.33;;;;;;;25.02;65.64;97444.25;5108761;28;20231;-22
2022/07/30 00:05:25;;;;;;;2.20;2.10;;;;;;;25.02;65.89;97443.41;5108372;28;20680;-22
2022/07/30 00:07:52;;;;;;;2.33;2.20;;;;;;;25.02;65.56;97438.28;5108874;28;20291;-22
2022/07/30 00:10:19;;;;;;;2.10;2.00;;;;;;;25.01;65.56;97439.97;5102179;28;20835;-23
2022/07/30 00:12:46;;;;;;;2.37;2.17;;;;;;;25.03;65.97;97440.00;5103879;28;20302;-23
2022/07/30 00:15:12;;;;;;;2.37;2.17;;;;;;;25.01;65.89;97439.97;5106506;28;20310;-22
2022/07/30 00:17:39;;;;;;;3.20;2.10;;;;;;;25.02;65.60;97441.69;5108162;28;20242;-23
2022/07/30 00:20:06;;;;;;;2.10;1.90;;;;;;;25.02;65.72;97438.28;5105072;28;20230;-23
2022/07/30 00:22:33;;;;;;;2.60;2.40;;;;;;;25.03;65.92;97438.31;5107330;28;20739;-23
2022/07/30 00:24:59;;;;;;;2.47;2.27;;;;;;;25.04;65.47;97439.13;5107079;28;20219;-22
2022/07/30 00:27:26;;;;;;;2.40;2.20;;;;;;;25.03;65.43;97437.41;5108892;28;20651;-22
2022/07/30 00:29:53;;;;;;;2.23;2.07;;;;;;;25.03;65.69;97438.31;5104750;28;20281;-22
2022/07/30 00:32:19;;;;;;;2.20;2.00;;;;;;;25.05;65.77;97433.19;5106389;28;20213;-22
2022/07/30 00:34:46;;;;;;;2.30;2.10;;;;;;;25.05;65.95;97431.44;5108069;28;20273;-23
2022/07/30 00:37:12;;;;;;;2.00;1.90;;;;;;;25.05;65.82;97441.75;5108559;28;20282;-22
2022/07/30 00:39:39;;;;;;;1.90;1.80;;;;;;;25.05;66.14;97436.59;5108240;28;20249;-22
2022/07/30 00:42:05;;;;;;;2.03;1.93;;;;;;;25.05;65.97;97435.75;5104184;28;20665;-22
2022/07/30 00:44:32;;;;;;;2.50;2.13;;;;;;;24.97;65.74;97414.19;5104302;27;20271;-23
2022/07/30 00:46:59;;;;;;;2.13;1.93;;;;;;;25.06;66.02;97430.63;5107511;28;20651;-22
2022/07/30 00:49:26;;;;;;;2.20;2.00;;;;;;;25.06;66.34;97430.63;5101180;28;20230;-23
2022/07/30 00:51:52;;;;;;;2.70;2.50;;;;;;;25.07;66.23;97431.47;5107065;28;20234;-22
2022/07/30 00:54:20;;;;;;;2.37;2.17;;;;;;;25.06;66.12;97434.91;5107623;28;20286;-22
2022/07/30 00:56:47;;;;;;;2.00;1.90;;;;;;;25.06;65.74;97433.19;5106372;28;20241;-21
2022/07/30 00:59:14;;;;;;;2.40;2.20;;;;;;;24.91;65.78;97406.41;5102158;28;20640;-22
2022/07/30 01:01:40;;;;;;;2.03;1.93;;;;;;;25.06;65.76;97433.19;5100994;28;20666;-21
2022/07/30 01:04:10;;;;;;;2.10;2.00;;;;;;;25.07;65.82;97427.19;5103121;28;20573;-22
2022/07/30 01:06:38;;;;;;;2.53;2.33;;;;;;;25.06;65.90;97428.06;5106615;28;20215;-23
2022/07/30 01:09:05;;;;;;;1.90;1.80;;;;;;;25.06;66.04;97419.47;5102695;28;20242;-22
2022/07/30 01:11:37;;;;;;;2.10;2.00;;;;;;;25.06;66.00;97425.47;5102000;28;20237;-22
2022/07/30 01:14:07;;;;;;;2.30;2.10;;;;;;;25.06;66.08;97420.34;5100023;28;20290;-22
2022/07/30 01:16:34;;;;;;;2.10;2.00;;;;;;;25.06;65.96;97424.59;5100867;28;20265;-23
2022/07/30 01:21:53;;;;;;;2.40;2.23;;;;;;;24.88;66.29;97394.38;5089974;28;20665;-22
2022/07/30 01:24:28;;;;;;;2.03;1.93;;;;;;;25.06;66.17;97430.63;5085900;28;20285;-24
2022/07/30 01:26:54;;;;;;;2.43;2.23;;;;;;;25.05;65.87;97431.44;5088098;28;20238;-23
2022/07/30 01:29:21;;;;;;;2.37;2.10;;;;;;;25.06;66.14;97433.19;5106304;28;20222;-23
2022/07/30 01:31:48;;;;;;;1.87;1.77;;;;;;;24.82;65.87;97389.16;5103391;28;20315;-23
2022/07/30 01:34:17;;;;;;;2.50;2.30;;;;;;;25.06;66.26;97430.63;5097556;28;20211;-22
2022/07/30 01:36:44;;;;;;;2.03;1.93;;;;;;;25.07;66.38;97432.34;5103085;28;20283;-22
2022/07/30 01:39:10;;;;;;;2.10;2.00;;;;;;;25.06;66.17;97434.91;5104662;28;20282;-22
2022/07/30 01:41:37;;;;;;;2.13;2.00;;;;;;;24.92;65.92;97410.69;5097947;28;20222;-23
2022/07/30 01:44:04;;;;;;;2.00;1.90;;;;;;;24.92;66.21;97406.41;5099127;28;20239;-22
2022/07/30 01:46:30;;;;;;;2.00;1.90;;;;;;;25.07;66.33;97428.91;5088948;28;20681;-23
2022/07/30 01:48:57;;;;;;;2.13;2.00;;;;;;;25.05;65.91;97431.44;5088299;28;20196;-23
2022/07/30 01:51:23;;;;;;;2.10;2.00;;;;;;;25.06;66.22;97425.47;5105717;28;20619;-23
2022/07/30 01:53:50;;;;;;;2.10;2.00;;;;;;;25.00;66.01;97407.41;5096009;28;20238;-22
2022/07/30 01:56:17;;;;;;;2.07;1.87;;;;;;;25.07;66.16;97421.19;5105187;28;20223;-22
2022/07/30 01:58:50;;;;;;;2.10;2.00;;;;;;;25.01;65.90;97410.81;5088803;28;20210;-22
2022/07/30 02:01:16;;;;;;;2.03;1.90;;;;;;;24.96;66.27;97389.34;5099063;28;20755;-23
2022/07/30 02:03:43;;;;;;;1.80;1.70;;;;;;;25.05;66.10;97417.75;5103360;28;20737;-22
2022/07/30 02:06:20;;;;;;;3.53;2.17;;;;;;;25.02;66.05;97415.13;5095930;28;20637;-23
2022/07/30 02:08:57;;;;;;;1.97;1.87;;;;;;;25.07;65.88;97424.63;5091777;28;20238;-23
2022/07/30 02:14:40;;;;;;;2.00;1.90;;;;;;;25.06;66.08;97417.78;5109182;28;20716;-22
2022/07/30 02:17:07;;;;;;;2.23;2.13;;;;;;;25.00;65.96;97404.81;5097352;28;20245;-23
2022/07/30 02:19:44;;;;;;;2.23;2.03;;;;;;;25.06;66.16;97425.47;5104472;28;20206;-22
2022/07/30 02:22:13;;;;;;;2.00;1.90;;;;;;;25.05;65.96;97421.16;5118380;27;20237;-23
2022/07/30 02:24:40;;;;;;;1.80;1.70;;;;;;;24.90;66.21;97390.09;5119822;27;20610;-21
2022/07/30 02:27:15;;;;;;;2.20;2.00;;;;;;;25.05;66.23;97420.31;5092914;28;20203;-22
2022/07/30 02:29:42;;;;;;;1.93;1.83;;;;;;;25.06;65.92;97425.47;5108751;28;20241;-22
2022/07/30 02:32:11;;;;;;;2.20;2.00;;;;;;;24.89;66.19;97395.22;5095402;28;20276;-22
2022/07/30 02:34:38;;;;;;;2.53;1.90;;;;;;;25.03;65.90;97416.84;5084129;28;20254;-22
2022/07/30 02:37:05;;;;;;;2.03;1.93;;;;;;;25.06;65.89;97425.47;5088200;22;20666;-21
2022/07/30 02:39:32;;;;;;;2.10;1.90;;;;;;;25.06;65.99;97428.06;5066943;28;20307;-21
2022/07/30 02:41:59;;;;;;;2.30;2.10;;;;;;;24.99;66.14;97422.81;5065010;28;20318;-21
2022/07/30 02:44:25;;;;;;;1.90;1.80;;;;;;;24.73;65.97;97372.72;5060464;28;20631;-21
2022/07/30 02:46:52;;;;;;;2.00;1.90;;;;;;;24.92;65.80;97411.56;5029775;28;20336;-21
2022/07/30 02:49:19;;;;;;;1.93;1.83;;;;;;;25.07;65.45;97431.47;5032337;28;20205;-21
2022/07/30 02:51:46;;;;;;;2.20;2.00;;;;;;;25.07;65.86;97431.47;5031245;28;20197;-21
2022/07/30 02:54:13;;;;;;;2.07;1.97;;;;;;;25.06;65.87;97428.06;5046100;28;20237;-21
2022/07/30 02:56:40;;;;;;;2.07;1.97;;;;;;;24.99;66.24;97410.78;5029050;28;20284;-21
2022/07/30 02:59:06;;;;;;;2.07;1.87;;;;;;;25.06;66.19;97420.34;5015071;28;20560;-21
2022/07/30 03:01:33;;;;;;;2.00;1.90;;;;;;;25.07;66.08;97426.31;5047521;28;20298;-21
2022/07/30 03:04:00;;;;;;;1.90;1.80;;;;;;;24.74;66.07;97364.16;5047967;28;20815;-21
2022/07/30 03:06:26;;;;;;;2.03;1.93;;;;;;;25.06;66.30;97420.34;5031831;28;20299;-21
2022/07/30 03:08:53;;;;;;;2.27;2.17;;;;;;;25.07;66.10;97423.75;5047756;28;20288;-21
2022/07/30 03:11:19;;;;;;;2.13;2.00;;;;;;;25.07;65.84;97427.19;5037854;28;20287;-21
2022/07/30 03:13:47;;;;;;;1.80;1.70;;;;;;;25.06;66.07;97425.47;5047801;28;20548;-21
2022/07/30 03:16:13;;;;;;;2.17;2.00;;;;;;;25.07;65.88;97424.63;5042510;28;20479;-21
2022/07/30 03:18:40;;;;;;;1.73;1.63;;;;;;;25.07;65.78;97421.19;5041597;28;20576;-21
2022/07/30 03:21:08;;;;;;;1.80;1.70;;;;;;;25.07;66.04;97429.78;5048222;28;20260;-21
2022/07/30 03:23:36;;;;;;;2.10;2.00;;;;;;;24.99;66.02;97412.53;5047418;28;20652;-21
2022/07/30 03:26:04;;;;;;;2.40;1.80;;;;;;;25.07;65.85;97431.47;5031416;28;20647;-21
2022/07/30 03:28:31;;;;;;;1.80;1.70;;;;;;;25.07;66.31;97423.75;5032061;28;20252;-21
2022/07/30 03:30:58;;;;;;;2.40;2.20;;;;;;;24.73;66.10;97375.28;5041340;28;20663;-21
2022/07/30 03:33:25;;;;;;;2.03;1.90;;;;;;;25.08;65.91;97438.38;5047095;28;20243;-20
2022/07/30 03:36:04;;;;;;;1.80;1.70;;;;;;;25.07;66.17;97437.50;5044696;28;20411;-21
2022/07/30 03:38:31;;;;;;;2.07;1.90;;;;;;;25.07;66.23;97446.91;5044165;28;20228;-21
2022/07/30 03:40:57;;;;;;;1.90;1.80;;;;;;;25.00;65.86;97427.97;5026242;28;20252;-21
2022/07/30 03:43:24;;;;;;;1.90;1.80;;;;;;;25.06;65.83;97443.50;5029670;28;20236;-21
2022/07/30 03:46:00;;;;;;;2.23;2.03;;;;;;;25.08;66.32;97448.66;5033639;28;20314;-21
2022/07/30 03:48:26;;;;;;;1.90;1.80;;;;;;;25.07;66.13;97452.03;5034791;28;20651;-21
2022/07/30 03:50:53;;;;;;;1.90;1.80;;;;;;;24.99;66.23;97426.22;5030830;28;20316;-21
2022/07/30 03:53:22;;;;;;;2.00;1.90;;;;;;;25.07;65.82;97452.03;5030878;28;20244;-21
2022/07/30 03:55:50;;;;;;;2.07;1.77;;;;;;;25.07;66.09;97446.91;5029916;28;20742;-21
2022/07/30 03:58:17;;;;;;;2.20;2.00;;;;;;;24.89;65.78;97413.22;5031348;28;20670;-21
2022/07/30 04:00:47;;;;;;;2.10;2.00;;;;;;;23.30;65.90;97149.66;5030850;28;20728;-21
2022/07/30 04:03:27;;;;;;;1.97;1.87;;;;;;;25.08;66.09;97466.66;5041027;28;20209;-21
2022/07/30 04:05:53;;;;;;;2.20;2.10;;;;;;;25.07;66.09;97455.50;5046252;28;20228;-20
2022/07/30 04:08:20;;;;;;;2.10;1.90;;;;;;;25.09;65.79;97458.09;5046716;28;20221;-21
2022/07/30 04:10:47;;;;;;;2.10;2.00;;;;;;;25.09;66.05;97458.09;5040932;28;20387;-21
2022/07/30 04:13:14;;;;;;;2.20;2.10;;;;;;;25.09;65.82;97460.66;5038297;28;20307;-21
2022/07/30 04:16:08;;;;;;;1.90;1.80;;;;;;;25.02;66.17;97451.13;5047933;28;20386;-21
2022/07/30 04:18:55;;;;;;;1.93;1.83;;;;;;;25.11;65.93;97474.41;5043723;28;20211;-21
2022/07/30 04:21:22;;;;;;;1.90;1.80;;;;;;;25.02;65.94;97459.69;5037842;28;20323;-21
2022/07/30 04:23:48;;;;;;;1.90;1.80;;;;;;;25.01;65.81;97451.97;5028016;28;20649;-21
2022/07/30 04:26:31;;;;;;;1.83;1.73;;;;;;;25.03;66.20;97458.00;5031308;28;20233;-21
2022/07/30 04:28:58;;;;;;;2.17;2.07;;;;;;;25.10;65.91;97476.09;5040771;28;20236;-21
2022/07/30 04:31:26;;;;;;;2.03;1.93;;;;;;;25.10;65.72;97478.69;5037047;28;20624;-21
2022/07/30 04:33:53;;;;;;;1.90;1.80;;;;;;;25.09;66.03;97481.22;5046160;28;20644;-21
2022/07/30 04:36:20;;;;;;;1.93;1.83;;;;;;;25.09;65.68;97476.09;5044677;28;20419;-21
2022/07/30 04:38:46;;;;;;;1.63;1.53;;;;;;;25.09;65.89;97478.66;5046501;28;20288;-21
2022/07/30 04:41:13;;;;;;;1.87;1.77;;;;;;;25.09;65.60;97481.22;5046938;28;20223;-21
2022/07/30 04:43:39;;;;;;;1.97;1.87;;;;;;;25.10;66.02;97493.22;5045795;28;20245;-21
2022/07/30 04:46:06;;;;;;;1.90;1.80;;;;;;;25.09;66.21;97510.41;5042525;28;20256;-20
2022/07/30 04:48:33;;;;;;;1.97;1.87;;;;;;;25.10;66.13;97506.97;5043689;28;20291;-21
2022/07/30 04:51:00;;;;;;;1.90;1.80;;;;;;;25.10;65.71;97503.53;5047249;28;20305;-21
2022/07/30 04:53:27;;;;;;;1.80;1.70;;;;;;;25.10;66.05;97501.81;5030021;28;20239;-21
2022/07/30 04:55:54;;;;;;;2.03;1.93;;;;;;;24.85;66.14;97461.16;5043168;28;20295;-21
2022/07/30 04:58:22;;;;;;;1.90;1.80;;;;;;;25.11;65.87;97505.28;5026841;28;20294;-21
2022/07/30 05:00:49;;;;;;;2.87;2.67;;;;;;;24.85;66.18;97458.59;5026431;28;20260;-21
2022/07/30 05:03:15;;;;;;;5.07;4.63;;;;;;;25.11;66.52;97513.84;5024184;28;20731;-21
2022/07/30 05:05:42;;;;;;;6.10;5.60;;;;;;;25.04;66.97;97493.16;5023795;28;20312;-21
2022/07/30 05:08:08;;;;;;;8.30;6.80;;;;;;;25.13;67.52;97510.44;5045643;28;20570;-21
2022/07/30 05:10:36;;;;;;;9.30;8.43;;;;;;;25.03;68.13;97504.28;5042328;28;20229;-21
2022/07/30 05:13:02;;;;;;;10.90;9.93;;;;;;;25.13;68.07;97520.72;5018673;28;20240;-21
2022/07/30 05:15:33;;;;;;;12.83;11.57;;;;;;;25.13;68.50;97523.31;5034836;28;20316;-21
2022/07/30 05:18:02;;;;;;;13.03;11.73;;;;;;;25.11;68.92;97521.53;5034616;28;20209;-20
2022/07/30 05:20:29;;;;;;;15.30;10.73;;;;;;;25.11;68.98;97523.28;5035628;28;20745;-21
2022/07/30 05:22:56;;;;;;;13.90;11.13;;;;;;;25.11;68.88;97529.25;5037303;28;20233;-21
2022/07/30 05:25:23;;;;;;;12.70;11.43;;;;;;;25.10;69.29;97522.41;5037368;28;20308;-21
2022/07/30 05:27:50;;;;;;;15.90;11.20;;;;;;;25.10;69.10;97518.94;5026324;28;20726;-21
2022/07/30 05:30:16;;;;;;;11.70;10.60;;;;;;;25.10;68.94;97526.66;5030679;28;20296;-21
2022/07/30 05:32:43;;;;;;;11.87;10.63;;;;;;;25.09;69.06;97530.09;5027871;28;20225;-21
2022/07/30 05:35:12;;;;;;;13.10;11.37;;;;;;;25.09;69.23;97527.53;5031934;28;20205;-21
2022/07/30 05:37:39;;;;;;;15.03;12.43;;;;;;;25.07;69.62;97526.63;5035786;28;20658;-21
2022/07/30 05:40:06;;;;;;;13.43;12.13;;;;;;;25.09;69.90;97530.09;5034530;28;20208;-21
2022/07/30 05:42:32;;;;;;;13.20;11.87;;;;;;;25.08;69.83;97528.38;5036029;28;20348;-21
2022/07/30 05:44:59;;;;;;;13.27;12.07;;;;;;;25.07;69.66;97526.63;5035756;28;20324;-21
2022/07/30 05:47:25;;;;;;;18.90;12.40;;;;;;;25.06;70.12;97532.63;5035660;28;20691;-21
2022/07/30 05:49:52;;;;;;;14.10;12.07;;;;;;;25.06;70.16;97530.91;5036352;28;20273;-21
2022/07/30 05:52:19;;;;;;;13.27;11.90;;;;;;;25.05;70.18;97529.16;5035188;28;20222;-20
2022/07/30 05:54:45;;;;;;;13.77;11.43;;;;;;;25.05;70.24;97531.75;5034237;28;20316;-21
2022/07/30 05:57:12;;;;;;;12.40;11.10;;;;;;;25.06;70.41;97535.19;5037770;28;20311;-21
2022/07/30 05:59:38;;;;;;;11.77;10.63;;;;;;;25.05;70.13;97530.91;5035496;28;20650;-21
2022/07/30 06:02:05;;;;;;;12.73;11.40;;;;;;;25.04;70.13;97532.59;5035120;28;20234;-20
2022/07/30 06:04:34;;;;;;;12.17;11.07;;;;;;;25.04;70.16;97531.72;5032331;28;20209;-21
2022/07/30 06:07:00;;;;;;;11.73;10.53;;;;;;;25.03;69.89;97535.13;5032492;28;20712;-21
2022/07/30 06:09:28;;;;;;;11.77;10.50;;;;;;;25.03;69.83;97536.03;5034803;28;20213;-21
2022/07/30 06:12:03;;;;;;;10.50;9.50;;;;;;;25.01;70.16;97535.13;5035433;28;20201;-20
2022/07/30 06:14:30;;;;;;;11.20;10.10;;;;;;;25.03;69.86;97540.28;5035667;28;20296;-21
2022/07/30 06:16:57;;;;;;;10.73;9.67;;;;;;;25.03;69.87;97546.31;5037765;28;20256;-21
2022/07/30 06:19:25;;;;;;;11.97;9.70;;;;;;;25.02;70.00;97541.13;5039727;28;20643;-21
2022/07/30 06:21:51;;;;;;;24.13;10.83;;;;;;;25.02;69.97;97541.97;5031343;28;20340;-21
2022/07/30 06:24:32;;;;;;;10.27;9.23;;;;;;;25.02;69.96;97541.13;5031134;28;20209;-21
2022/07/30 06:26:59;;;;;;;10.53;9.63;;;;;;;25.01;69.96;97537.69;5036627;28;20845;-21
2022/07/30 06:29:26;;;;;;;10.27;8.87;;;;;;;25.02;69.88;97551.41;5035647;28;20205;-21
2022/07/30 06:31:53;;;;;;;10.77;8.37;;;;;;;25.01;69.55;97547.97;5036547;28;20748;-21
2022/07/30 06:34:19;;;;;;;10.03;8.20;;;;;;;25.01;69.02;97547.97;5037972;28;20301;-22
2022/07/30 06:36:46;;;;;;;9.70;8.47;;;;;;;25.01;68.85;97552.25;5034064;28;20267;-21
2022/07/30 06:39:12;;;;;;;9.13;8.23;;;;;;;25.01;69.17;97544.53;5046081;28;20331;-21
2022/07/30 06:41:40;;;;;;;9.53;8.73;;;;;;;25.00;69.27;97551.41;5040568;28;20308;-21
2022/07/30 06:44:07;;;;;;;8.27;7.57;;;;;;;25.00;68.60;97547.94;5036045;28;20297;-21
2022/07/30 06:46:33;;;;;;;9.03;8.23;;;;;;;25.01;68.94;97550.53;5045603;28;20271;-21
2022/07/30 06:49:00;;;;;;;8.97;8.17;;;;;;;24.99;68.41;97549.66;5044716;28;20664;-21
2022/07/30 06:51:27;;;;;;;9.40;8.50;;;;;;;25.00;68.65;97545.38;5048511;28;20204;-21
2022/07/30 06:53:53;;;;;;;9.30;7.87;;;;;;;25.00;68.72;97558.25;5043850;28;20201;-21
2022/07/30 06:56:20;;;;;;;9.83;8.17;;;;;;;25.00;68.86;97550.53;5041879;28;20311;-20
2022/07/30 06:58:47;;;;;;;8.77;8.00;;;;;;;25.01;68.78;97557.38;5046067;28;20236;-21
2022/07/30 07:01:13;;;;;;;10.00;8.97;;;;;;;25.00;68.69;97545.38;5043097;28;20649;-21
2022/07/30 07:03:40;;;;;;;8.97;8.10;;;;;;;25.01;68.42;97560.84;5044623;28;20211;-21
2022/07/30 07:06:07;;;;;;;12.60;8.67;;;;;;;25.00;68.87;97551.41;5038874;28;20367;-20
2022/07/30 07:08:37;;;;;;;9.00;8.20;;;;;;;25.01;68.41;97557.38;5040563;28;20240;-20
2022/07/30 07:11:03;;;;;;;8.90;8.10;;;;;;;25.01;68.43;97560.84;5043264;28;20236;-21
2022/07/30 07:13:30;;;;;;;9.20;7.97;;;;;;;25.00;68.57;97563.38;5044033;28;20235;-21
2022/07/30 07:15:57;;;;;;;9.37;8.23;;;;;;;24.92;68.30;97546.94;5049349;28;20304;-21
2022/07/30 07:18:23;;;;;;;9.23;8.33;;;;;;;23.21;68.28;97249.47;5038353;28;20201;-21
2022/07/30 07:20:50;;;;;;;8.60;7.77;;;;;;;25.01;68.68;97550.53;5042249;28;20229;-21
2022/07/30 07:23:16;;;;;;;7.90;7.30;;;;;;;25.00;68.47;97548.81;5043020;28;20307;-21
2022/07/30 07:25:46;;;;;;;8.00;7.20;;;;;;;24.76;68.26;97507.28;5042046;28;20239;-21
2022/07/30 07:28:12;;;;;;;8.80;7.70;;;;;;;25.02;68.54;97546.28;5047536;28;20197;-21
2022/07/30 07:30:40;;;;;;;8.70;8.00;;;;;;;25.02;68.23;97541.13;5047088;28;20211;-21
2022/07/30 07:33:06;;;;;;;7.83;7.13;;;;;;;25.02;68.39;97541.13;5037963;28;20224;-27
2022/07/30 07:35:33;;;;;;;8.10;7.30;;;;;;;25.02;68.23;97547.13;5045303;28;20327;-21
2022/07/30 07:38:16;;;;;;;8.93;8.03;;;;;;;25.02;68.26;97547.13;5044467;28;20701;-21
2022/07/30 07:40:43;;;;;;;8.03;6.93;;;;;;;25.03;68.61;97545.44;5041701;28;20284;-21
2022/07/30 07:43:09;;;;;;;8.13;7.43;;;;;;;25.03;68.57;97545.44;5045511;28;20256;-21
2022/07/30 07:45:36;;;;;;;7.60;7.00;;;;;;;25.03;68.70;97548.00;5045650;28;20275;-21
2022/07/30 07:48:03;;;;;;;7.73;6.80;;;;;;;25.04;68.17;97552.28;5040544;28;20931;-21
2022/07/30 07:50:30;;;;;;;7.80;7.00;;;;;;;25.03;68.19;97541.16;5043004;28;20289;-21
2022/07/30 07:52:56;;;;;;;7.03;6.43;;;;;;;25.03;68.39;97540.28;5043981;28;20237;-21
2022/07/30 07:55:23;;;;;;;6.70;6.10;;;;;;;25.04;68.21;97544.56;5042499;28;20217;-21
2022/07/30 07:57:50;;;;;;;6.83;6.13;;;;;;;25.04;68.58;97553.16;5037364;28;20246;-21
2022/07/30 08:00:17;;;;;;;8.97;6.57;;;;;;;25.04;68.05;97545.44;5030893;28;20288;-20
2022/07/30 08:02:44;;;;;;;6.10;5.60;;;;;;;25.05;68.03;97554.03;5034059;28;20318;-20
2022/07/30 08:05:11;;;;;;;5.80;5.30;;;;;;;25.05;68.43;97546.31;5034733;28;20317;-21
2022/07/30 08:07:38;;;;;;;6.40;5.90;;;;;;;25.07;68.15;97542.06;5032437;28;20296;-25
2022/07/30 08:10:05;;;;;;;5.73;5.23;;;;;;;25.07;68.22;97555.78;5035482;28;20255;-21
2022/07/30 08:12:32;;;;;;;6.23;5.70;;;;;;;25.07;68.26;97554.91;5033120;28;20204;-21
2022/07/30 08:14:58;;;;;;;5.87;5.30;;;;;;;25.07;67.81;97560.06;5032192;28;20683;-21
2022/07/30 08:17:25;;;;;;;6.47;5.80;;;;;;;25.07;67.85;97560.94;5031656;28;20237;-20
2022/07/30 08:19:51;;;;;;;5.43;5.03;;;;;;;25.06;68.05;97569.50;5035491;28;20688;-21
2022/07/30 08:22:20;;;;;;;5.80;5.17;;;;;;;25.05;67.81;97551.47;5038654;28;20691;-21
2022/07/30 08:24:46;;;;;;;7.27;5.10;;;;;;;25.06;67.64;97553.19;5031765;28;20292;-21
2022/07/30 08:27:13;;;;;;;5.60;5.10;;;;;;;25.07;67.63;97560.06;5031908;28;20267;-21
2022/07/30 08:29:39;;;;;;;5.50;5.00;;;;;;;25.07;68.08;97568.66;5036062;28;20391;-21
2022/07/30 08:32:06;;;;;;;5.63;5.07;;;;;;;25.08;67.60;97560.06;5031339;28;20289;-20
2022/07/30 08:34:32;;;;;;;5.50;4.80;;;;;;;25.09;67.63;97560.94;5034170;28;20302;-21
2022/07/30 08:37:00;;;;;;;4.97;4.57;;;;;;;25.09;67.98;97566.09;5082691;22;20300;-21
2022/07/30 08:39:27;;;;;;;5.20;4.73;;;;;;;25.08;67.96;97575.50;5080831;28;20241;-22
2022/07/30 08:41:54;;;;;;;5.27;4.77;;;;;;;25.10;67.67;97565.25;5074280;28;20287;-22
2022/07/30 08:44:20;;;;;;;7.03;4.77;;;;;;;25.09;68.03;97566.09;5083830;28;20236;-21
2022/07/30 08:46:47;;;;;;;5.67;5.07;;;;;;;25.04;67.71;97563.44;5060532;28;20251;-22
2022/07/30 08:49:14;;;;;;;8.90;4.90;;;;;;;25.05;67.89;97566.91;5082402;28;20242;-22
2022/07/30 08:51:41;;;;;;;5.43;4.93;;;;;;;25.09;67.87;97574.69;5081388;28;20320;-22
2022/07/30 08:54:08;;;;;;;5.03;4.63;;;;;;;25.09;67.58;97574.69;5103146;28;20772;-22
2022/07/30 08:56:34;;;;;;;5.13;4.63;;;;;;;25.09;67.47;97571.25;5097941;28;20309;-22
2022/07/30 08:59:01;;;;;;;5.13;4.63;;;;;;;25.10;67.87;97567.81;5093880;28;20248;-22
2022/07/30 09:01:27;;;;;;;6.60;4.80;;;;;;;25.09;67.87;97566.09;5100561;28;20586;-22
2022/07/30 09:03:54;;;;;;;4.90;4.50;;;;;;;25.09;67.65;97571.25;5090587;28;21019;-22
2022/07/30 09:06:21;;;;;;;5.87;4.57;;;;;;;25.09;67.89;97560.94;5097353;28;20665;-22
2022/07/30 09:08:47;;;;;;;4.80;4.40;;;;;;;25.03;67.38;97560.84;5073518;28;20812;-23
2022/07/30 09:11:14;;;;;;;5.03;4.53;;;;;;;25.08;67.85;97562.66;5090805;28;20210;-23
2022/07/30 09:13:41;;;;;;;4.53;4.23;;;;;;;25.09;67.46;97573.81;5091331;28;20770;-21
2022/07/30 09:16:26;;;;;;;4.70;4.30;;;;;;;25.05;67.82;97572.88;5097288;28;20733;-20
2022/07/30 09:18:53;;;;;;;5.20;4.43;;;;;;;25.09;67.51;97566.09;5095952;28;20991;-22
2022/07/30 09:21:24;;;;;;;5.00;4.50;;;;;;;25.07;67.54;97568.66;5096033;28;20286;-23
2022/07/30 09:24:05;;;;;;;5.20;4.70;;;;;;;25.08;67.65;97565.22;5098075;28;21078;-23
2022/07/30 09:26:32;;;;;;;5.00;4.60;;;;;;;25.07;66.90;97558.34;5094256;28;20278;-22
2022/07/30 09:29:28;;;;;;;4.90;4.50;;;;;;;25.08;67.42;97565.22;5070218;28;20234;-23
2022/07/30 09:31:58;;;;;;;4.60;4.20;;;;;;;25.03;67.38;97555.72;5073590;28;20227;-24
2022/07/30 09:34:27;;;;;;;4.60;4.20;;;;;;;25.08;67.42;97559.22;5090050;28;20906;-22
2022/07/30 09:36:55;;;;;;;5.00;4.50;;;;;;;24.88;67.69;97535.78;5089597;28;20310;-22
2022/07/30 09:39:28;;;;;;;4.30;3.93;;;;;;;25.07;67.30;97560.06;5072334;28;20294;-22
2022/07/30 09:41:55;;;;;;;4.93;4.43;;;;;;;25.06;67.82;97558.34;5087006;28;20691;-22
2022/07/30 09:44:26;;;;;;;4.50;4.10;;;;;;;25.07;67.33;97554.91;5092094;28;20607;-22
2022/07/30 09:46:53;;;;;;;4.27;3.97;;;;;;;25.06;67.27;97556.63;5092741;28;20265;-23
2022/07/30 09:49:21;;;;;;;4.93;4.10;;;;;;;25.07;67.42;97560.06;5094595;28;20254;-22
2022/07/30 09:51:48;;;;;;;4.40;4.00;;;;;;;25.06;67.71;97554.06;5089754;28;20241;-22
2022/07/30 09:54:24;;;;;;;4.13;3.80;;;;;;;24.96;67.25;97535.91;5091081;28;20209;-22
2022/07/30 09:57:07;;;;;;;4.07;3.77;;;;;;;25.07;67.35;97565.19;5077044;28;20246;-23
2022/07/30 09:59:56;;;;;;;4.97;4.00;;;;;;;25.06;67.63;97546.34;5090960;28;20606;-22
2022/07/30 10:02:29;;;;;;;5.63;3.90;;;;;;;25.06;67.41;97554.06;5092418;28;20224;-21
2022/07/30 10:05:08;;;;;;;4.57;4.17;;;;;;;25.05;67.64;97542.03;5089987;28;20213;-21
2022/07/30 10:07:40;;;;;;;4.27;3.97;;;;;;;25.06;67.30;97546.34;5092491;28;20223;-22
2022/07/30 10:10:09;;;;;;;3.90;3.60;;;;;;;24.99;67.40;97534.22;5059362;28;20215;-22
2022/07/30 10:12:35;;;;;;;5.40;3.73;;;;;;;25.05;67.37;97542.03;5058795;28;20206;-22
2022/07/30 10:15:04;;;;;;;4.30;4.00;;;;;;;24.90;67.31;97508.38;5076146;28;20203;-23
2022/07/30 10:17:33;;;;;;;4.10;3.80;;;;;;;24.99;67.67;97518.78;5063452;28;20222;-22
2022/07/30 10:19:59;;;;;;;4.37;4.00;;;;;;;25.05;67.69;97529.16;5059577;28;20310;-22
2022/07/30 10:22:34;;;;;;;4.20;3.90;;;;;;;25.04;67.14;97535.16;5077862;28;20305;-22
2022/07/30 10:25:02;;;;;;;4.17;3.87;;;;;;;24.94;67.58;97517.88;5091724;28;20256;-21
2022/07/30 10:27:30;;;;;;;4.40;4.00;;;;;;;25.05;67.70;97536.88;5077333;28;20915;-23
2022/07/30 10:29:57;;;;;;;4.00;3.70;;;;;;;24.96;67.23;97520.47;5096682;28;20227;-21
2022/07/30 10:32:28;;;;;;;3.93;3.63;;;;;;;25.05;67.57;97533.47;5065276;28;20207;-22
2022/07/30 10:34:56;;;;;;;4.27;3.87;;;;;;;25.00;67.33;97528.25;5076713;28;20207;-22
2022/07/30 10:37:23;;;;;;;4.17;3.53;;;;;;;25.04;67.52;97540.31;5092040;28;20669;-22
2022/07/30 10:39:54;;;;;;;4.10;3.80;;;;;;;25.05;67.68;97533.47;5077715;28;20216;-21
2022/07/30 10:42:35;;;;;;;4.20;3.90;;;;;;;25.04;67.49;97527.44;5093572;28;20209;-22
2022/07/30 10:45:23;;;;;;;3.63;3.40;;;;;;;25.03;67.78;97527.44;5091986;28;20293;-21
2022/07/30 10:47:50;;;;;;;3.83;3.50;;;;;;;24.90;67.46;97517.81;5093058;28;20234;-22
2022/07/30 10:50:18;;;;;;;3.53;3.30;;;;;;;25.05;67.51;97541.19;5077887;28;20302;-22
2022/07/30 10:53:00;;;;;;;4.07;3.53;;;;;;;25.04;67.71;97545.44;5089183;28;20649;-22
2022/07/30 10:55:32;;;;;;;5.10;3.63;;;;;;;25.05;67.46;97543.75;5102668;28;20208;-21
2022/07/30 10:58:11;;;;;;;4.40;3.53;;;;;;;25.05;67.65;97536.03;5095558;28;20209;-22
2022/07/30 11:00:51;;;;;;;3.90;3.60;;;;;;;25.05;67.48;97542.03;5101247;28;20643;-22
2022/07/30 11:03:25;;;;;;;4.00;3.70;;;;;;;25.05;67.31;97541.19;5092907;28;20677;-23
2022/07/30 11:06:13;;;;;;;4.00;3.70;;;;;;;25.06;67.06;97542.91;5098495;28;20246;-23
2022/07/30 11:08:44;;;;;;;4.03;3.57;;;;;;;24.93;67.64;97512.72;5094067;28;20670;-21
2022/07/30 11:11:36;;;;;;;4.17;3.70;;;;;;;25.06;67.15;97537.75;5084412;28;20311;-22
2022/07/30 11:14:43;;;;;;;4.00;3.70;;;;;;;25.05;67.42;97534.31;5095935;28;20687;-21
2022/07/30 11:17:10;;;;;;;3.80;3.50;;;;;;;25.05;67.59;97538.63;5076659;28;20642;-21
2022/07/30 11:20:06;;;;;;;4.07;3.67;;;;;;;25.05;67.55;97534.31;5092567;28;20290;-22
2022/07/30 11:22:39;;;;;;;3.70;3.40;;;;;;;25.06;67.45;97535.19;5094808;28;20215;-22
2022/07/30 11:25:10;;;;;;;3.67;3.37;;;;;;;25.06;67.30;97540.34;5089010;28;20362;-21
2022/07/30 11:27:45;;;;;;;3.40;3.10;;;;;;;25.05;67.07;97539.47;5096457;28;20996;-21
2022/07/30 11:30:17;;;;;;;4.47;3.30;;;;;;;25.05;67.29;97538.63;5095982;28;20741;-21
2022/07/30 11:32:48;;;;;;;4.27;3.87;;;;;;;25.06;67.29;97532.63;5097052;28;20203;-22
2022/07/30 11:35:20;;;;;;;3.60;3.30;;;;;;;25.04;67.55;97531.72;5102935;28;20204;-22
2022/07/30 11:38:19;;;;;;;4.93;3.27;;;;;;;25.06;67.59;97530.03;5095087;28;20219;-22
2022/07/30 11:40:47;;;;;;;3.50;3.20;;;;;;;25.06;67.04;97530.03;5089365;28;20353;-23
2022/07/30 11:43:18;;;;;;;3.20;3.00;;;;;;;25.04;67.49;97527.44;5099807;28;20215;-23
2022/07/30 11:45:54;;;;;;;4.47;3.23;;;;;;;25.03;66.94;97523.16;5099283;28;20219;-22